Time;durP1;ratioP1;P1;durP2;ratioP2;P2;SDS_P1;SDS_P2;PMS_P1;PMS_P2;Temp;Humidity;BMP_temperature;BMP_pressure;BME280_temperature;BME280_humidity;BME280_pressure;Samples;Min_cycle;Max_cycle;Signal;HPM_P1;HPM_P2
2022/03/20 00:00:32;;;;;;;;;4.00;4.00;;;;;;;;5074035;28;45506;-71
2022/03/20 00:02:58;;;;;;;;;4.25;4.25;;;;;;;;5071554;28;45422;-71
2022/03/20 00:05:23;;;;;;;;;5.00;5.00;;;;;;;;5074246;28;45361;-71
2022/03/20 00:07:48;;;;;;;;;4.75;4.00;;;;;;;;5074045;28;45743;-71
2022/03/20 00:10:14;;;;;;;;;4.75;4.00;;;;;;;;5076553;28;46230;-71
2022/03/20 00:12:40;;;;;;;;;4.00;3.75;;;;;;;;5073684;28;45819;-71
2022/03/20 00:15:05;;;;;;;;;5.75;5.00;;;;;;;;5072400;28;45782;-71
2022/03/20 00:17:31;;;;;;;;;4.50;4.50;;;;;;;;5073196;28;45223;-71
2022/03/20 00:19:56;;;;;;;;;5.50;4.50;;;;;;;;5071931;28;45542;-71
2022/03/20 00:22:21;;;;;;;;;2.50;2.50;;;;;;;;5075341;27;45464;-71
2022/03/20 00:24:47;;;;;;;;;4.00;3.00;;;;;;;;5073366;27;45205;-71
2022/03/20 00:27:13;;;;;;;;;5.50;4.00;;;;;;;;5072397;28;45304;-71
2022/03/20 00:29:39;;;;;;;;;4.25;4.25;;;;;;;;5071938;28;45472;-71
2022/03/20 00:32:05;;;;;;;;;3.00;3.00;;;;;;;;5072779;28;45493;-71
2022/03/20 00:34:30;;;;;;;;;4.25;4.25;;;;;;;;5074204;28;45397;-71
2022/03/20 00:36:55;;;;;;;;;4.50;3.50;;;;;;;;5073681;28;45649;-71
2022/03/20 00:39:21;;;;;;;;;5.50;3.75;;;;;;;;5075119;27;46170;-71
2022/03/20 00:41:46;;;;;;;;;3.75;3.75;;;;;;;;5081555;27;45361;-71
2022/03/20 00:44:11;;;;;;;;;3.50;3.50;;;;;;;;5085982;27;45490;-71
2022/03/20 00:46:36;;;;;;;;;2.25;2.25;;;;;;;;5073840;28;45358;-71
2022/03/20 00:49:01;;;;;;;;;3.50;3.00;;;;;;;;5075843;28;45426;-71
2022/03/20 00:51:27;;;;;;;;;5.50;5.00;;;;;;;;5073527;28;45326;-71
2022/03/20 00:53:53;;;;;;;;;4.00;3.00;;;;;;;;5072625;28;45332;-71
2022/03/20 00:56:18;;;;;;;;;4.75;4.75;;;;;;;;5073070;28;45528;-71
2022/03/20 00:58:46;;;;;;;;;3.00;3.00;;;;;;;;5073097;27;46328;-71
2022/03/20 01:01:11;;;;;;;;;4.00;4.00;;;;;;;;5071339;28;45498;-71
2022/03/20 01:03:38;;;;;;;;;3.00;3.00;;;;;;;;5071009;28;45390;-71
2022/03/20 01:06:03;;;;;;;;;3.50;3.50;;;;;;;;5071426;28;45442;-71
2022/03/20 01:08:28;;;;;;;;;3.25;3.00;;;;;;;;5076518;28;46435;-71
2022/03/20 01:10:53;;;;;;;;;3.00;3.00;;;;;;;;5075720;28;45383;-70
2022/03/20 01:13:18;;;;;;;;;3.25;3.25;;;;;;;;5078818;28;45193;-71
2022/03/20 01:15:44;;;;;;;;;2.50;2.25;;;;;;;;5077985;28;45619;-71
2022/03/20 01:18:09;;;;;;;;;3.00;3.00;;;;;;;;5076422;28;45361;-70
2022/03/20 01:20:34;;;;;;;;;3.00;3.00;;;;;;;;5079436;27;45462;-71
2022/03/20 01:22:59;;;;;;;;;3.00;3.00;;;;;;;;5077079;28;45486;-71
2022/03/20 01:25:25;;;;;;;;;3.75;3.00;;;;;;;;5077938;28;45238;-71
2022/03/20 01:27:50;;;;;;;;;2.00;2.00;;;;;;;;5075934;28;46194;-71
2022/03/20 01:30:15;;;;;;;;;3.25;3.25;;;;;;;;5075126;28;45366;-71
2022/03/20 01:32:41;;;;;;;;;3.25;3.25;;;;;;;;5074700;28;45426;-71
2022/03/20 01:35:08;;;;;;;;;3.00;3.00;;;;;;;;5076408;28;45481;-71
2022/03/20 01:37:33;;;;;;;;;4.00;4.00;;;;;;;;5075383;28;47288;-71
2022/03/20 01:39:58;;;;;;;;;1.00;1.00;;;;;;;;5076303;28;45315;-71
2022/03/20 01:42:23;;;;;;;;;3.75;3.00;;;;;;;;5075298;27;45237;-71
2022/03/20 01:44:49;;;;;;;;;2.75;2.00;;;;;;;;5075171;28;45325;-71
2022/03/20 01:47:14;;;;;;;;;2.00;2.00;;;;;;;;5076007;28;45437;-71
2022/03/20 01:49:40;;;;;;;;;4.50;3.00;;;;;;;;5076973;28;45595;-71
2022/03/20 01:52:11;;;;;;;;;3.50;2.00;;;;;;;;5078845;28;45309;-71
2022/03/20 01:54:41;;;;;;;;;4.00;4.00;;;;;;;;5074027;28;45482;-71
2022/03/20 01:57:07;;;;;;;;;3.50;3.50;;;;;;;;5074356;28;46201;-71
2022/03/20 01:59:32;;;;;;;;;4.00;3.75;;;;;;;;5076282;27;45635;-71
2022/03/20 02:01:58;;;;;;;;;3.00;3.00;;;;;;;;5076493;28;45327;-71
2022/03/20 02:04:23;;;;;;;;;2.75;2.75;;;;;;;;5077494;28;45570;-71
2022/03/20 02:06:48;;;;;;;;;1.25;1.25;;;;;;;;5076362;28;45280;-71
2022/03/20 02:09:13;;;;;;;;;3.00;1.75;;;;;;;;5058091;28;45538;-71
2022/03/20 02:11:40;;;;;;;;;2.00;2.00;;;;;;;;5076870;28;45794;-71
2022/03/20 02:14:05;;;;;;;;;2.00;2.00;;;;;;;;5075958;28;45434;-71
2022/03/20 02:16:30;;;;;;;;;4.00;4.00;;;;;;;;5076259;28;45579;-71
2022/03/20 02:18:56;;;;;;;;;2.25;2.25;;;;;;;;5074766;28;45477;-71
2022/03/20 02:21:39;;;;;;;;;3.00;2.00;;;;;;;;5074497;28;45423;-71
2022/03/20 02:24:25;;;;;;;;;2.00;2.00;;;;;;;;5073812;28;45386;-71
2022/03/20 02:26:50;;;;;;;;;3.00;3.00;;;;;;;;5074060;28;45987;-71
2022/03/20 02:29:15;;;;;;;;;3.00;3.00;;;;;;;;5075772;28;45385;-71
2022/03/20 02:31:40;;;;;;;;;3.75;2.00;;;;;;;;5076548;28;45642;-71
2022/03/20 02:34:06;;;;;;;;;2.50;2.50;;;;;;;;5077821;28;45394;-71
2022/03/20 02:36:31;;;;;;;;;2.00;2.00;;;;;;;;5075755;28;47210;-71
2022/03/20 02:38:57;;;;;;;;;2.00;2.00;;;;;;;;5075834;28;45450;-71
2022/03/20 02:41:23;;;;;;;;;3.00;3.00;;;;;;;;5075213;28;45469;-71
2022/03/20 02:43:52;;;;;;;;;3.00;1.00;;;;;;;;5075456;28;45460;-71
2022/03/20 02:46:18;;;;;;;;;1.75;1.75;;;;;;;;5073436;28;46163;-71
2022/03/20 02:48:45;;;;;;;;;3.00;2.00;;;;;;;;5073718;28;45496;-71
2022/03/20 02:51:10;;;;;;;;;2.50;2.50;;;;;;;;5074009;28;45297;-71
2022/03/20 02:53:36;;;;;;;;;2.50;2.50;;;;;;;;5075216;28;45403;-71
2022/03/20 02:56:02;;;;;;;;;2.00;2.00;;;;;;;;5074432;28;46137;-71
2022/03/20 02:58:27;;;;;;;;;1.00;1.00;;;;;;;;5075760;27;45567;-71
2022/03/20 03:00:54;;;;;;;;;3.75;2.50;;;;;;;;5076845;28;45416;-71
2022/03/20 03:03:20;;;;;;;;;2.00;2.00;;;;;;;;5073437;27;45422;-71
2022/03/20 03:05:45;;;;;;;;;1.00;1.00;;;;;;;;5075103;27;45277;-71
2022/03/20 03:11:01;;;;;;;;;2.75;2.00;;;;;;;;5059989;28;45419;-71
2022/03/20 03:13:29;;;;;;;;;2.00;2.00;;;;;;;;5075912;28;45301;-71
2022/03/20 03:15:55;;;;;;;;;2.50;2.50;;;;;;;;5076367;28;45295;-71
2022/03/20 03:18:20;;;;;;;;;2.00;2.00;;;;;;;;5074181;28;45344;-71
2022/03/20 03:20:47;;;;;;;;;2.50;2.50;;;;;;;;5075253;28;45414;-71
2022/03/20 03:23:13;;;;;;;;;2.25;2.25;;;;;;;;5075196;28;45224;-71
2022/03/20 03:25:39;;;;;;;;;3.75;3.75;;;;;;;;5075121;28;47122;-71
2022/03/20 03:28:05;;;;;;;;;2.25;2.25;;;;;;;;5076841;28;45524;-71
2022/03/20 03:30:30;;;;;;;;;2.00;2.00;;;;;;;;5072255;28;45372;-70
2022/03/20 03:32:56;;;;;;;;;2.00;2.00;;;;;;;;5073050;27;45468;-71
2022/03/20 03:38:05;;;;;;;;;1.00;1.00;;;;;;;;5074103;28;45458;-71
2022/03/20 03:40:30;;;;;;;;;3.75;2.00;;;;;;;;5075023;28;45448;-71
2022/03/20 03:42:55;;;;;;;;;1.00;1.00;;;;;;;;5074753;28;45548;-71
2022/03/20 03:45:23;;;;;;;;;2.00;2.00;;;;;;;;5072518;28;47160;-71
2022/03/20 03:47:49;;;;;;;;;2.75;1.00;;;;;;;;5074345;28;45557;-71
2022/03/20 03:50:14;;;;;;;;;2.75;1.75;;;;;;;;5074920;28;45620;-71
2022/03/20 03:52:40;;;;;;;;;0.25;0.25;;;;;;;;5074496;28;45411;-71
2022/03/20 03:55:05;;;;;;;;;3.00;2.00;;;;;;;;5076215;28;46015;-71
2022/03/20 03:57:30;;;;;;;;;1.50;1.50;;;;;;;;5074382;28;45501;-71
2022/03/20 03:59:55;;;;;;;;;2.25;2.25;;;;;;;;5074399;28;45516;-71
2022/03/20 04:02:21;;;;;;;;;1.75;1.50;;;;;;;;5074481;28;45308;-71
2022/03/20 04:04:47;;;;;;;;;2.50;2.50;;;;;;;;5061979;28;46174;-71
2022/03/20 04:07:16;;;;;;;;;2.00;2.00;;;;;;;;5075650;28;45442;-71
2022/03/20 04:09:42;;;;;;;;;2.00;2.00;;;;;;;;5077276;27;45461;-71
2022/03/20 04:12:07;;;;;;;;;2.75;2.75;;;;;;;;5078441;27;45425;-71
2022/03/20 04:14:32;;;;;;;;;2.00;2.00;;;;;;;;5074577;27;46056;-71
2022/03/20 04:16:58;;;;;;;;;2.00;2.00;;;;;;;;5072791;28;45432;-71
2022/03/20 04:19:23;;;;;;;;;1.00;1.00;;;;;;;;5075491;28;45368;-70
2022/03/20 04:21:49;;;;;;;;;4.25;3.25;;;;;;;;5073606;28;45284;-71
2022/03/20 04:24:14;;;;;;;;;2.50;1.75;;;;;;;;5071561;28;47130;-71
2022/03/20 04:26:40;;;;;;;;;1.00;1.00;;;;;;;;5073724;28;45351;-71
2022/03/20 04:29:05;;;;;;;;;2.25;1.50;;;;;;;;5074188;28;45494;-71
2022/03/20 04:31:30;;;;;;;;;2.00;2.00;;;;;;;;5074884;28;45406;-71
2022/03/20 04:33:56;;;;;;;;;1.75;1.75;;;;;;;;5074926;28;45430;-71
2022/03/20 04:36:22;;;;;;;;;1.25;1.00;;;;;;;;5072990;28;45379;-71
2022/03/20 04:38:48;;;;;;;;;1.50;1.50;;;;;;;;5072476;28;45308;-71
2022/03/20 04:41:13;;;;;;;;;2.00;2.00;;;;;;;;5073692;28;45285;-71
2022/03/20 04:43:40;;;;;;;;;4.75;3.00;;;;;;;;5073538;28;45344;-71
2022/03/20 04:46:05;;;;;;;;;1.75;1.75;;;;;;;;5074654;28;45336;-71
2022/03/20 04:59:26;;;;;;;;;1.00;1.00;;;;;;;;5072486;28;45475;-71
2022/03/20 05:01:51;;;;;;;;;1.00;1.00;;;;;;;;5073095;28;45467;-71
2022/03/20 05:04:16;;;;;;;;;1.00;1.00;;;;;;;;5075495;28;46144;-71
2022/03/20 05:06:45;;;;;;;;;1.25;1.00;;;;;;;;5073105;28;45367;-71
2022/03/20 05:14:38;;;;;;;;;2.00;2.00;;;;;;;;5072612;28;45315;-71
2022/03/20 05:17:07;;;;;;;;;1.50;1.00;;;;;;;;5072181;28;45605;-71
2022/03/20 05:19:33;;;;;;;;;1.00;1.00;;;;;;;;5073646;28;45245;-71
2022/03/20 05:21:58;;;;;;;;;3.00;2.00;;;;;;;;5073341;28;45364;-70
2022/03/20 05:24:24;;;;;;;;;1.00;1.00;;;;;;;;5071987;28;46285;-71
2022/03/20 05:26:49;;;;;;;;;2.50;1.50;;;;;;;;5071514;28;45387;-71
2022/03/20 05:29:14;;;;;;;;;2.00;2.00;;;;;;;;5073439;28;45618;-71
2022/03/20 05:31:40;;;;;;;;;2.25;1.75;;;;;;;;5073474;28;45316;-71
2022/03/20 05:34:05;;;;;;;;;1.00;1.00;;;;;;;;5073385;28;46317;-71
2022/03/20 05:36:30;;;;;;;;;2.25;2.25;;;;;;;;5075902;27;45447;-71
2022/03/20 05:38:56;;;;;;;;;1.75;1.75;;;;;;;;5075811;27;45434;-71
2022/03/20 05:44:05;;;;;;;;;1.75;1.00;;;;;;;;5059377;28;45766;-71
2022/03/20 05:46:30;;;;;;;;;1.00;1.00;;;;;;;;5072615;28;45363;-71
2022/03/20 05:48:55;;;;;;;;;1.00;1.00;;;;;;;;5074124;28;45434;-70
2022/03/20 05:51:20;;;;;;;;;2.50;1.75;;;;;;;;5072605;28;45553;-72
2022/03/20 05:53:46;;;;;;;;;1.00;1.00;;;;;;;;5074403;28;46292;-71
2022/03/20 05:58:57;;;;;;;;;2.75;2.75;;;;;;;;5061399;28;45332;-72
2022/03/20 06:01:23;;;;;;;;;2.00;2.00;;;;;;;;5077404;28;45418;-72
2022/03/20 06:03:49;;;;;;;;;2.00;2.00;;;;;;;;5076646;28;45374;-72
2022/03/20 06:06:14;;;;;;;;;2.25;1.25;;;;;;;;5073517;28;45387;-72
2022/03/20 06:08:40;;;;;;;;;1.75;1.75;;;;;;;;5075977;28;45663;-71
2022/03/20 06:11:06;;;;;;;;;1.00;1.00;;;;;;;;5074916;28;45374;-71
2022/03/20 06:13:31;;;;;;;;;2.00;2.00;;;;;;;;5076412;28;47149;-72
2022/03/20 06:15:57;;;;;;;;;1.75;1.75;;;;;;;;5075453;28;45434;-71
2022/03/20 06:18:23;;;;;;;;;2.00;1.00;;;;;;;;5074093;27;45646;-72
2022/03/20 06:20:49;;;;;;;;;3.00;1.75;;;;;;;;5075733;28;45408;-71
2022/03/20 06:23:14;;;;;;;;;2.50;1.50;;;;;;;;5074632;28;47002;-71
2022/03/20 06:25:39;;;;;;;;;2.50;1.75;;;;;;;;5076024;28;45256;-72
2022/03/20 06:28:04;;;;;;;;;1.50;1.50;;;;;;;;5076309;27;45507;-71
2022/03/20 06:30:32;;;;;;;;;5.00;2.00;;;;;;;;5075598;27;45523;-71
2022/03/20 06:32:57;;;;;;;;;2.00;1.75;;;;;;;;5075854;28;46283;-71
2022/03/20 06:35:23;;;;;;;;;1.00;1.00;;;;;;;;5075673;28;45340;-71
2022/03/20 06:37:53;;;;;;;;;2.00;2.00;;;;;;;;5075718;28;45458;-71
2022/03/20 06:40:19;;;;;;;;;3.75;1.00;;;;;;;;5073909;28;45317;-71
2022/03/20 06:42:45;;;;;;;;;1.00;1.00;;;;;;;;5075627;28;46329;-71
2022/03/20 06:45:11;;;;;;;;;2.75;2.00;;;;;;;;5073974;28;45432;-72
2022/03/20 06:47:37;;;;;;;;;2.00;2.00;;;;;;;;5075832;28;45606;-71
2022/03/20 06:50:03;;;;;;;;;1.25;1.25;;;;;;;;5074188;28;45371;-72
2022/03/20 06:52:28;;;;;;;;;1.00;1.00;;;;;;;;5076051;28;46131;-72
2022/03/20 06:54:58;;;;;;;;;2.00;2.00;;;;;;;;5075046;28;45489;-71
2022/03/20 06:57:23;;;;;;;;;2.00;1.00;;;;;;;;5056295;28;45377;-72
2022/03/20 06:59:48;;;;;;;;;3.50;2.00;;;;;;;;5076540;28;45331;-72
2022/03/20 07:02:16;;;;;;;;;2.00;2.00;;;;;;;;5075822;28;46127;-71
2022/03/20 07:04:41;;;;;;;;;1.00;1.00;;;;;;;;5073904;28;45322;-72
2022/03/20 07:07:06;;;;;;;;;1.00;1.00;;;;;;;;5077315;28;45459;-71
2022/03/20 07:09:31;;;;;;;;;1.00;1.00;;;;;;;;5075459;28;45294;-71
2022/03/20 07:11:56;;;;;;;;;1.50;1.50;;;;;;;;5074786;28;45441;-72
2022/03/20 07:14:22;;;;;;;;;1.00;1.00;;;;;;;;5073157;28;45466;-71
2022/03/20 07:16:47;;;;;;;;;3.00;3.00;;;;;;;;5071196;28;45338;-71
2022/03/20 07:19:12;;;;;;;;;1.50;1.50;;;;;;;;5076558;28;45509;-72
2022/03/20 07:21:37;;;;;;;;;2.00;2.00;;;;;;;;5058268;28;46062;-72
2022/03/20 07:24:03;;;;;;;;;1.75;1.75;;;;;;;;5074793;28;45549;-71
2022/03/20 07:29:30;;;;;;;;;3.00;2.00;;;;;;;;5072788;28;45277;-72
2022/03/20 07:31:59;;;;;;;;;2.25;2.25;;;;;;;;5073259;28;46251;-72
2022/03/20 07:34:24;;;;;;;;;1.00;1.00;;;;;;;;5075876;28;45450;-72
2022/03/20 07:36:50;;;;;;;;;2.00;2.00;;;;;;;;5073960;28;45543;-72
2022/03/20 07:39:15;;;;;;;;;1.25;1.00;;;;;;;;5074590;28;45405;-72
2022/03/20 07:41:40;;;;;;;;;3.75;1.00;;;;;;;;5075693;28;46156;-72
2022/03/20 07:44:06;;;;;;;;;1.25;1.25;;;;;;;;5072929;28;45389;-72
2022/03/20 07:46:31;;;;;;;;;1.00;1.00;;;;;;;;5076156;28;45378;-72
2022/03/20 07:48:58;;;;;;;;;1.00;1.00;;;;;;;;5075358;27;45534;-72
2022/03/20 07:51:23;;;;;;;;;1.00;1.00;;;;;;;;5047530;28;47231;-72
2022/03/20 07:53:50;;;;;;;;;2.00;2.00;;;;;;;;5041744;28;45498;-72
2022/03/20 07:56:18;;;;;;;;;1.00;1.00;;;;;;;;5052624;28;48697;-72
2022/03/20 07:58:43;;;;;;;;;1.25;1.25;;;;;;;;5037845;28;45650;-71
2022/03/20 08:01:08;;;;;;;;;2.75;2.00;;;;;;;;5051721;28;45450;-71
2022/03/20 08:03:33;;;;;;;;;1.00;1.00;;;;;;;;5042666;28;46040;-72
2022/03/20 08:05:59;;;;;;;;;1.75;1.75;;;;;;;;5043104;28;45557;-72
2022/03/20 08:08:25;;;;;;;;;4.00;2.25;;;;;;;;5049359;28;45423;-72
2022/03/20 08:10:50;;;;;;;;;2.25;2.25;;;;;;;;5052565;28;45557;-72
2022/03/20 08:13:15;;;;;;;;;3.00;1.75;;;;;;;;5054711;28;45524;-72
2022/03/20 08:15:40;;;;;;;;;1.00;1.00;;;;;;;;5049540;28;45519;-72
2022/03/20 08:18:07;;;;;;;;;2.00;2.00;;;;;;;;5045966;28;45378;-72
2022/03/20 08:20:33;;;;;;;;;1.75;1.00;;;;;;;;5040792;28;46244;-71
2022/03/20 08:22:58;;;;;;;;;1.50;1.50;;;;;;;;5045322;28;45395;-71
2022/03/20 08:25:26;;;;;;;;;2.75;1.00;;;;;;;;5039461;28;45287;-71
2022/03/20 08:27:51;;;;;;;;;2.00;2.00;;;;;;;;5040807;28;45513;-72
2022/03/20 08:30:17;;;;;;;;;2.00;2.00;;;;;;;;5040574;28;46123;-72
2022/03/20 08:32:42;;;;;;;;;2.75;2.00;;;;;;;;5042024;28;45300;-72
2022/03/20 08:35:09;;;;;;;;;2.25;2.00;;;;;;;;5044022;28;45508;-72
2022/03/20 08:37:35;;;;;;;;;2.00;2.00;;;;;;;;5039903;28;45437;-71
2022/03/20 08:40:01;;;;;;;;;0.75;0.75;;;;;;;;5040153;28;46425;-72
2022/03/20 08:42:27;;;;;;;;;1.75;1.75;;;;;;;;5050132;28;45547;-72
2022/03/20 08:44:53;;;;;;;;;4.25;2.75;;;;;;;;5052433;28;45369;-71
2022/03/20 08:47:18;;;;;;;;;1.00;1.00;;;;;;;;5040111;28;45434;-72
2022/03/20 08:49:43;;;;;;;;;2.00;1.00;;;;;;;;5041732;28;45994;-72
2022/03/20 08:52:09;;;;;;;;;2.00;1.00;;;;;;;;5074802;28;45636;-72
2022/03/20 08:54:34;;;;;;;;;2.00;2.00;;;;;;;;5072601;28;45453;-72
2022/03/20 08:57:01;;;;;;;;;2.00;2.00;;;;;;;;5071777;28;45305;-72
2022/03/20 08:59:26;;;;;;;;;2.50;2.00;;;;;;;;5071251;27;46375;-71
2022/03/20 09:01:51;;;;;;;;;1.75;1.75;;;;;;;;5071926;28;45639;-71
2022/03/20 09:04:16;;;;;;;;;1.00;1.00;;;;;;;;5075636;28;45477;-71
2022/03/20 09:06:44;;;;;;;;;1.00;1.00;;;;;;;;5072883;28;45274;-71
2022/03/20 09:09:13;;;;;;;;;2.25;1.75;;;;;;;;5071543;28;46355;-72
2022/03/20 09:11:38;;;;;;;;;2.00;2.00;;;;;;;;5071341;28;45298;-72
2022/03/20 09:14:03;;;;;;;;;1.75;1.75;;;;;;;;5073423;28;45474;-72
2022/03/20 09:19:12;;;;;;;;;5.00;2.00;;;;;;;;5074793;28;45497;-71
2022/03/20 09:21:38;;;;;;;;;3.00;1.25;;;;;;;;5054858;28;46144;-72
2022/03/20 09:24:04;;;;;;;;;3.25;2.25;;;;;;;;5073065;28;45450;-71
2022/03/20 09:26:29;;;;;;;;;3.25;1.75;;;;;;;;5073479;28;45521;-71
2022/03/20 09:28:55;;;;;;;;;3.50;1.00;;;;;;;;5075035;28;46283;-71
2022/03/20 09:31:20;;;;;;;;;1.25;1.25;;;;;;;;5078418;28;45411;-71
2022/03/20 09:33:46;;;;;;;;;1.25;1.25;;;;;;;;5076492;28;45276;-72
2022/03/20 09:36:11;;;;;;;;;1.75;1.75;;;;;;;;5076165;28;45627;-72
2022/03/20 09:38:37;;;;;;;;;1.75;1.00;;;;;;;;5076162;28;46194;-72
2022/03/20 09:41:09;;;;;;;;;2.00;2.00;;;;;;;;5077704;28;45332;-71
2022/03/20 09:43:38;;;;;;;;;3.25;2.00;;;;;;;;5077007;28;45390;-72
2022/03/20 09:46:04;;;;;;;;;1.00;1.00;;;;;;;;5076187;28;45465;-72
2022/03/20 09:48:30;;;;;;;;;2.25;2.25;;;;;;;;5074230;28;45627;-72
2022/03/20 09:50:56;;;;;;;;;2.25;2.25;;;;;;;;5074805;28;45474;-72
2022/03/20 09:53:22;;;;;;;;;2.00;2.00;;;;;;;;5071404;28;45457;-71
2022/03/20 09:55:47;;;;;;;;;3.00;2.25;;;;;;;;5077183;28;45521;-71
2022/03/20 09:58:13;;;;;;;;;6.00;3.75;;;;;;;;5074098;28;46403;-71
2022/03/20 10:00:39;;;;;;;;;2.00;2.00;;;;;;;;5071947;28;45364;-71
2022/03/20 10:03:14;;;;;;;;;2.50;1.50;;;;;;;;5074742;28;45390;-71
2022/03/20 10:05:40;;;;;;;;;2.75;2.00;;;;;;;;5074765;28;45468;-72
2022/03/20 10:08:19;;;;;;;;;4.75;2.00;;;;;;;;5072929;28;46209;-72
2022/03/20 10:10:45;;;;;;;;;2.00;2.00;;;;;;;;5073955;28;45491;-72
2022/03/20 10:13:13;;;;;;;;;1.00;1.00;;;;;;;;5077428;28;45303;-72
2022/03/20 10:15:39;;;;;;;;;2.00;2.00;;;;;;;;5075176;28;45493;-71
2022/03/20 10:18:07;;;;;;;;;2.25;2.25;;;;;;;;5073653;28;47138;-72
2022/03/20 10:20:41;;;;;;;;;2.75;2.75;;;;;;;;5073758;28;45431;-71
2022/03/20 10:23:27;;;;;;;;;1.75;1.75;;;;;;;;5074146;28;45484;-72
2022/03/20 10:25:52;;;;;;;;;2.75;1.50;;;;;;;;5058384;28;45269;-71
2022/03/20 10:28:17;;;;;;;;;2.00;2.00;;;;;;;;5078054;28;46444;-72
2022/03/20 10:30:54;;;;;;;;;2.25;2.25;;;;;;;;5074473;28;45236;-71
2022/03/20 10:33:19;;;;;;;;;2.50;2.50;;;;;;;;5074681;28;45578;-72
2022/03/20 10:36:04;;;;;;;;;3.00;1.00;;;;;;;;5075140;28;45402;-72
2022/03/20 10:38:36;;;;;;;;;2.25;2.00;;;;;;;;5074672;28;46373;-72
2022/03/20 10:41:01;;;;;;;;;2.00;2.00;;;;;;;;5076541;28;47280;-72
2022/03/20 10:43:26;;;;;;;;;2.00;2.00;;;;;;;;5076956;28;45376;-72
2022/03/20 10:45:57;;;;;;;;;2.00;2.00;;;;;;;;5076269;28;45579;-72
2022/03/20 10:48:46;;;;;;;;;3.00;2.00;;;;;;;;5073697;28;46136;-72
2022/03/20 10:51:11;;;;;;;;;3.00;3.00;;;;;;;;5064664;28;45376;-72
2022/03/20 10:53:52;;;;;;;;;4.00;3.50;;;;;;;;5058443;28;45525;-72
2022/03/20 10:56:17;;;;;;;;;3.00;2.00;;;;;;;;5075574;28;45913;-72
2022/03/20 10:58:43;;;;;;;;;4.00;2.50;;;;;;;;5075070;28;45383;-72
2022/03/20 11:01:09;;;;;;;;;2.50;2.50;;;;;;;;5077203;27;45379;-71
2022/03/20 11:03:38;;;;;;;;;3.75;3.75;;;;;;;;5073381;28;45478;-71
2022/03/20 11:06:07;;;;;;;;;2.50;2.50;;;;;;;;5075342;28;45586;-71
2022/03/20 11:08:32;;;;;;;;;2.00;2.00;;;;;;;;5073203;28;46181;-72
2022/03/20 11:10:58;;;;;;;;;3.25;3.25;;;;;;;;5075171;28;45497;-71
2022/03/20 11:13:25;;;;;;;;;4.00;2.50;;;;;;;;5076533;27;45295;-72
2022/03/20 11:15:53;;;;;;;;;2.75;2.00;;;;;;;;5076547;28;45410;-72
2022/03/20 11:18:18;;;;;;;;;1.75;1.75;;;;;;;;5073037;28;46206;-72
2022/03/20 11:20:50;;;;;;;;;5.50;2.75;;;;;;;;5072289;28;45318;-71
2022/03/20 11:23:17;;;;;;;;;3.00;2.00;;;;;;;;5074018;28;46061;-72
2022/03/20 11:25:44;;;;;;;;;2.00;2.00;;;;;;;;5074921;28;46052;-71
2022/03/20 11:28:11;;;;;;;;;2.25;2.00;;;;;;;;5075577;28;46200;-72
2022/03/20 11:30:36;;;;;;;;;3.00;3.00;;;;;;;;5073178;28;45340;-71
2022/03/20 11:33:02;;;;;;;;;2.00;2.00;;;;;;;;5073737;28;45385;-72
2022/03/20 11:35:30;;;;;;;;;3.75;2.00;;;;;;;;5072169;28;48808;-72
2022/03/20 11:37:58;;;;;;;;;4.00;3.00;;;;;;;;5074559;28;46342;-72
2022/03/20 11:40:25;;;;;;;;;4.00;3.00;;;;;;;;5072702;28;45294;-72
2022/03/20 11:43:11;;;;;;;;;3.25;3.25;;;;;;;;5074853;28;45484;-71
2022/03/20 11:45:36;;;;;;;;;3.00;3.00;;;;;;;;5072006;28;45958;-71
2022/03/20 11:48:21;;;;;;;;;6.00;2.00;;;;;;;;5073924;28;45507;-71
2022/03/20 11:50:47;;;;;;;;;2.50;2.50;;;;;;;;5073532;28;45288;-71
2022/03/20 11:53:13;;;;;;;;;3.00;3.00;;;;;;;;5075126;27;45415;-71
2022/03/20 11:55:47;;;;;;;;;4.50;3.50;;;;;;;;5074036;28;45388;-71
2022/03/20 11:58:21;;;;;;;;;2.25;2.25;;;;;;;;5076446;27;47207;-72
2022/03/20 12:01:02;;;;;;;;;2.00;2.00;;;;;;;;5073401;28;45331;-72
2022/03/20 12:03:37;;;;;;;;;4.75;3.50;;;;;;;;5072066;28;45452;-71
2022/03/20 12:06:05;;;;;;;;;3.25;3.25;;;;;;;;5071262;28;45381;-72
2022/03/20 12:08:49;;;;;;;;;5.75;3.00;;;;;;;;5072227;28;45502;-72
2022/03/20 12:11:22;;;;;;;;;3.00;3.00;;;;;;;;5072976;28;45208;-72
2022/03/20 12:14:03;;;;;;;;;4.00;4.00;;;;;;;;5073173;28;45424;-72
2022/03/20 12:16:43;;;;;;;;;4.00;2.75;;;;;;;;5072347;28;45416;-72
2022/03/20 12:19:12;;;;;;;;;1.75;1.50;;;;;;;;5070791;28;47175;-72
2022/03/20 12:21:55;;;;;;;;;3.00;3.00;;;;;;;;5072195;28;45341;-71
2022/03/20 12:24:36;;;;;;;;;4.00;2.75;;;;;;;;5071257;28;45513;-71
2022/03/20 12:27:23;;;;;;;;;1.00;1.00;;;;;;;;5073569;28;45822;-71
2022/03/20 12:29:49;;;;;;;;;5.00;4.00;;;;;;;;5073759;28;45341;-71
2022/03/20 12:32:15;;;;;;;;;4.50;3.25;;;;;;;;5072361;28;45673;-72
2022/03/20 12:34:41;;;;;;;;;3.00;2.50;;;;;;;;5072760;28;45550;-72
2022/03/20 12:37:25;;;;;;;;;3.00;3.00;;;;;;;;5074743;27;45474;-71
2022/03/20 12:39:54;;;;;;;;;2.25;2.25;;;;;;;;5072877;28;46077;-72
2022/03/20 12:42:20;;;;;;;;;2.00;2.00;;;;;;;;5071764;28;45505;-71
2022/03/20 12:44:46;;;;;;;;;3.50;3.50;;;;;;;;5072281;28;45259;-72
2022/03/20 12:47:11;;;;;;;;;3.25;3.25;;;;;;;;5071353;28;45510;-72
2022/03/20 12:49:38;;;;;;;;;5.00;3.25;;;;;;;;5073214;28;46537;-71
2022/03/20 12:52:04;;;;;;;;;2.75;2.50;;;;;;;;5075950;28;45230;-72
2022/03/20 12:54:31;;;;;;;;;2.75;2.75;;;;;;;;5073128;28;45610;-72
2022/03/20 12:56:58;;;;;;;;;3.75;3.00;;;;;;;;5069703;28;45440;-71
2022/03/20 12:59:24;;;;;;;;;3.25;2.00;;;;;;;;5073507;28;46163;-72
2022/03/20 13:01:49;;;;;;;;;3.00;3.00;;;;;;;;5065815;27;45658;-72
2022/03/20 13:04:19;;;;;;;;;4.75;3.75;;;;;;;;5079670;28;45375;-72
2022/03/20 13:06:44;;;;;;;;;3.00;2.00;;;;;;;;5080204;27;45461;-72
2022/03/20 13:09:12;;;;;;;;;5.00;3.50;;;;;;;;5079480;27;46847;-71
2022/03/20 13:11:52;;;;;;;;;3.50;3.50;;;;;;;;5079610;27;45472;-72
2022/03/20 13:14:17;;;;;;;;;2.00;2.00;;;;;;;;5079785;27;45374;-72
2022/03/20 13:16:56;;;;;;;;;3.25;3.00;;;;;;;;5077996;27;45528;-72
2022/03/20 13:19:25;;;;;;;;;1.75;1.50;;;;;;;;5075001;28;45435;-71
2022/03/20 13:21:50;;;;;;;;;2.75;2.75;;;;;;;;5075955;28;45513;-71
2022/03/20 13:24:25;;;;;;;;;4.00;4.00;;;;;;;;5075490;28;45343;-72
2022/03/20 13:26:58;;;;;;;;;3.75;3.75;;;;;;;;5075135;28;45463;-72
2022/03/20 13:29:23;;;;;;;;;4.00;4.00;;;;;;;;5074586;28;46207;-71
2022/03/20 13:32:00;;;;;;;;;4.75;3.25;;;;;;;;5075557;28;45351;-72
2022/03/20 13:34:26;;;;;;;;;2.50;2.00;;;;;;;;5074816;28;45375;-71
2022/03/20 13:36:51;;;;;;;;;2.25;2.25;;;;;;;;5076105;28;45293;-72
2022/03/20 13:39:17;;;;;;;;;3.75;3.75;;;;;;;;5076102;28;46004;-72
2022/03/20 13:41:43;;;;;;;;;3.00;3.00;;;;;;;;5076157;28;45423;-72
2022/03/20 13:44:11;;;;;;;;;3.25;3.00;;;;;;;;5076327;28;45293;-71
2022/03/20 13:46:36;;;;;;;;;3.25;3.25;;;;;;;;5076009;28;45324;-71
2022/03/20 13:49:03;;;;;;;;;4.25;3.25;;;;;;;;5078017;27;46064;-71
2022/03/20 13:51:29;;;;;;;;;3.50;3.50;;;;;;;;5077214;28;45581;-72
2022/03/20 13:54:11;;;;;;;;;4.00;3.00;;;;;;;;5075889;28;45396;-72
2022/03/20 13:56:37;;;;;;;;;4.75;4.75;;;;;;;;5076503;28;45415;-71
2022/03/20 13:59:06;;;;;;;;;3.00;2.00;;;;;;;;5079398;27;46145;-71
2022/03/20 14:01:43;;;;;;;;;4.00;3.00;;;;;;;;5077148;28;45340;-71
2022/03/20 14:04:09;;;;;;;;;3.00;3.00;;;;;;;;5078444;28;45311;-72
2022/03/20 14:06:36;;;;;;;;;3.50;3.00;;;;;;;;5074613;28;45448;-71
2022/03/20 14:09:01;;;;;;;;;4.00;2.25;;;;;;;;5075246;28;48634;-72
2022/03/20 14:11:34;;;;;;;;;2.50;2.50;;;;;;;;5075611;28;45460;-71
2022/03/20 14:13:59;;;;;;;;;2.00;2.00;;;;;;;;5076215;28;45524;-71
2022/03/20 14:16:25;;;;;;;;;2.25;2.25;;;;;;;;5077237;28;45450;-71
2022/03/20 14:18:53;;;;;;;;;3.00;2.75;;;;;;;;5076322;28;45955;-72
2022/03/20 14:21:20;;;;;;;;;3.00;3.00;;;;;;;;5075896;28;45496;-71
2022/03/20 14:24:06;;;;;;;;;3.00;3.00;;;;;;;;5075841;28;45478;-72
2022/03/20 14:26:33;;;;;;;;;2.50;2.50;;;;;;;;5075301;28;45372;-72
2022/03/20 14:29:07;;;;;;;;;3.50;3.50;;;;;;;;5073377;28;46168;-72
2022/03/20 14:40:13;;;;;;;;;6.00;6.00;;;;;;;;4995191;28;45791;-72
2022/03/20 14:42:38;;;;;;;;;2.50;2.50;;;;;;;;4998087;28;45544;-72
2022/03/20 14:45:04;;;;;;;;;3.00;3.00;;;;;;;;4994456;28;45404;-71
2022/03/20 14:47:30;;;;;;;;;2.50;2.50;;;;;;;;4996776;28;45290;-72
2022/03/20 14:49:56;;;;;;;;;3.00;3.00;;;;;;;;4993554;28;45963;-72
2022/03/20 14:52:22;;;;;;;;;2.25;2.00;;;;;;;;4995343;28;45416;-72
2022/03/20 14:54:47;;;;;;;;;3.50;3.50;;;;;;;;4995820;28;45321;-71
2022/03/20 14:57:13;;;;;;;;;3.75;1.00;;;;;;;;4994910;28;45357;-72
2022/03/20 14:59:39;;;;;;;;;4.00;4.00;;;;;;;;4994754;28;46165;-72
2022/03/20 15:02:05;;;;;;;;;3.25;2.75;;;;;;;;4995065;28;45579;-71
2022/03/20 15:04:33;;;;;;;;;3.00;3.00;;;;;;;;5002916;28;45452;-71
2022/03/20 15:06:59;;;;;;;;;2.75;2.75;;;;;;;;4997125;28;45512;-71
2022/03/20 15:12:08;;;;;;;;;2.25;2.25;;;;;;;;5005217;28;45455;-72
2022/03/20 15:14:34;;;;;;;;;3.75;2.75;;;;;;;;5075449;28;46216;-72
2022/03/20 15:16:59;;;;;;;;;2.50;2.50;;;;;;;;5075095;28;45421;-72
2022/03/20 15:19:24;;;;;;;;;4.50;3.75;;;;;;;;5076602;28;46135;-71
2022/03/20 15:21:50;;;;;;;;;3.75;3.00;;;;;;;;5074129;28;45594;-71
2022/03/20 15:24:16;;;;;;;;;4.00;4.00;;;;;;;;5073480;28;45624;-71
2022/03/20 15:26:42;;;;;;;;;4.25;3.00;;;;;;;;5072345;28;45759;-71